Time;durP1;ratioP1;P1;durP2;ratioP2;P2;SDS_P1;SDS_P2;PMS_P1;PMS_P2;Temp;Humidity;BMP_temperature;BMP_pressure;BME280_temperature;BME280_humidity;BME280_pressure;Samples;Min_cycle;Max_cycle;Signal;HPM_P1;HPM_P2
2021/07/07 00:01:28;;;;;;;3.50;1.70;;;;;;;;;;4998438;28;20129;-85
2021/07/07 00:03:55;;;;;;;5.95;2.33;;;;;;;;;;4998361;28;20029;-86
2021/07/07 00:06:22;;;;;;;4.93;2.10;;;;;;;;;;5014791;28;20033;-85
2021/07/07 00:08:49;;;;;;;4.18;1.85;;;;;;;;;;4982646;28;20090;-86
2021/07/07 00:11:15;;;;;;;4.38;1.73;;;;;;;;;;4982421;28;20045;-85
2021/07/07 00:13:42;;;;;;;5.78;1.75;;;;;;;;;;4982399;28;20037;-86
2021/07/07 00:16:08;;;;;;;5.43;2.17;;;;;;;;;;4995100;28;20034;-85
2021/07/07 00:18:34;;;;;;;3.03;1.40;;;;;;;;;;5011406;28;20042;-85
2021/07/07 00:21:01;;;;;;;5.57;2.47;;;;;;;;;;5011525;28;20091;-86
2021/07/07 00:23:30;;;;;;;4.57;1.55;;;;;;;;;;5011102;28;20034;-85
2021/07/07 00:25:56;;;;;;;3.72;1.70;;;;;;;;;;5011122;28;20076;-85
2021/07/07 00:28:22;;;;;;;3.22;1.33;;;;;;;;;;4995206;28;20065;-86
2021/07/07 00:30:48;;;;;;;5.93;1.98;;;;;;;;;;5011018;28;20037;-85
2021/07/07 00:33:15;;;;;;;5.05;1.77;;;;;;;;;;5011286;28;20026;-86
2021/07/07 00:35:41;;;;;;;3.35;1.52;;;;;;;;;;4994542;28;20038;-86
2021/07/07 00:38:08;;;;;;;5.93;2.13;;;;;;;;;;4995009;28;20033;-86
2021/07/07 00:40:40;;;;;;;4.60;1.80;;;;;;;;;;4994969;28;20048;-85
2021/07/07 00:43:05;;;;;;;;;;;;;;;;;;5011440;28;20108;-86
2021/07/07 00:45:31;;;;;;;4.22;1.80;;;;;;;;;;4994682;28;20000;-85
2021/07/07 00:47:57;;;;;;;4.50;1.42;;;;;;;;;;5011282;28;20034;-86
2021/07/07 00:50:23;;;;;;;5.45;1.50;;;;;;;;;;5014037;28;20021;-85
2021/07/07 00:52:48;;;;;;;5.82;2.00;;;;;;;;;;4998072;28;20476;-85
2021/07/07 00:55:15;;;;;;;3.92;1.50;;;;;;;;;;4997760;28;20037;-86
2021/07/07 00:57:44;;;;;;;5.13;1.65;;;;;;;;;;5014485;28;20034;-86
2021/07/07 01:00:14;;;;;;;5.47;1.70;;;;;;;;;;4978458;28;20034;-86
2021/07/07 01:02:42;;;;;;;4.75;1.67;;;;;;;;;;5011042;28;20728;-86
2021/07/07 01:05:13;;;;;;;5.22;1.58;;;;;;;;;;4978838;28;20022;-86
2021/07/07 01:07:42;;;;;;;4.85;1.67;;;;;;;;;;4985226;28;20038;-86
2021/07/07 01:10:12;;;;;;;4.55;1.48;;;;;;;;;;5003514;28;20097;-86
2021/07/07 01:12:38;;;;;;;5.75;1.73;;;;;;;;;;5004690;28;20080;-86
2021/07/07 01:15:08;;;;;;;6.03;1.60;;;;;;;;;;4989812;28;20030;-86
2021/07/07 01:17:33;;;;;;;3.95;1.52;;;;;;;;;;4994191;28;20053;-84
2021/07/07 01:20:20;;;;;;;4.07;1.50;;;;;;;;;;5021055;28;20488;-86
2021/07/07 01:22:46;;;;;;;4.18;1.77;;;;;;;;;;4998097;28;20037;-86
2021/07/07 01:25:13;;;;;;;2.67;1.23;;;;;;;;;;4998422;28;20117;-85
2021/07/07 01:27:39;;;;;;;3.83;1.52;;;;;;;;;;4998513;28;20033;-86
2021/07/07 01:30:07;;;;;;;5.53;2.28;;;;;;;;;;4998099;28;20030;-85
2021/07/07 01:32:32;;;;;;;3.60;1.30;;;;;;;;;;4998336;28;20022;-86
2021/07/07 01:34:58;;;;;;;3.65;1.15;;;;;;;;;;4997939;28;20044;-86
2021/07/07 01:37:26;;;;;;;9.07;1.67;;;;;;;;;;4997966;28;20029;-86
2021/07/07 01:39:53;;;;;;;4.80;1.23;;;;;;;;;;4998283;28;20042;-86
2021/07/07 01:42:18;;;;;;;5.05;1.52;;;;;;;;;;4998118;28;20117;-86
2021/07/07 01:44:44;;;;;;;3.90;1.15;;;;;;;;;;4997961;28;20041;-86
2021/07/07 01:47:10;;;;;;;3.80;1.40;;;;;;;;;;4998115;28;20040;-86
2021/07/07 01:49:35;;;;;;;5.00;1.48;;;;;;;;;;5006057;28;20041;-86
2021/07/07 01:52:01;;;;;;;4.47;1.17;;;;;;;;;;5017820;28;20167;-81
2021/07/07 01:54:26;;;;;;;3.60;1.27;;;;;;;;;;5016718;28;20115;-80
2021/07/07 01:56:52;;;;;;;2.53;1.02;;;;;;;;;;5000455;28;20038;-80
2021/07/07 01:59:17;;;;;;;4.75;1.40;;;;;;;;;;4996961;28;20026;-81
2021/07/07 02:01:43;;;;;;;3.95;1.45;;;;;;;;;;5013542;28;20026;-80
2021/07/07 02:04:08;;;;;;;3.78;1.17;;;;;;;;;;5006128;28;20149;-80
2021/07/07 02:06:35;;;;;;;3.92;1.35;;;;;;;;;;4996919;28;20120;-80
2021/07/07 02:09:00;;;;;;;4.10;1.08;;;;;;;;;;4996829;28;20106;-80
2021/07/07 02:11:26;;;;;;;3.40;1.30;;;;;;;;;;4997028;28;20542;-81
2021/07/07 02:13:51;;;;;;;6.05;1.50;;;;;;;;;;5013204;28;20112;-80
2021/07/07 02:16:17;;;;;;;6.50;1.17;;;;;;;;;;4996958;28;20476;-81
2021/07/07 02:18:42;;;;;;;5.10;1.80;;;;;;;;;;4997129;28;20025;-80
2021/07/07 02:21:08;;;;;;;4.35;1.08;;;;;;;;;;4997219;28;20026;-80
2021/07/07 02:23:33;;;;;;;4.60;1.13;;;;;;;;;;4996297;28;20038;-81
2021/07/07 02:25:59;;;;;;;5.40;1.27;;;;;;;;;;5012308;28;20384;-81
2021/07/07 02:28:25;;;;;;;4.32;0.95;;;;;;;;;;5012489;28;20484;-80
2021/07/07 02:30:51;;;;;;;3.33;1.25;;;;;;;;;;4996720;28;20034;-80
2021/07/07 02:33:16;;;;;;;3.65;1.50;;;;;;;;;;4996983;28;20538;-80
2021/07/07 02:35:42;;;;;;;2.88;1.23;;;;;;;;;;4996335;28;20029;-81
2021/07/07 02:38:09;;;;;;;2.47;0.85;;;;;;;;;;4996259;28;20037;-80
2021/07/07 02:40:35;;;;;;;4.07;1.50;;;;;;;;;;4996780;28;20112;-80
2021/07/07 02:43:01;;;;;;;5.30;1.23;;;;;;;;;;5012954;28;20564;-80
2021/07/07 02:45:27;;;;;;;4.97;1.40;;;;;;;;;;4996533;28;20033;-80
2021/07/07 02:47:53;;;;;;;2.53;1.05;;;;;;;;;;4996750;28;20404;-81
2021/07/07 02:50:19;;;;;;;4.45;1.17;;;;;;;;;;5009822;28;20033;-80
2021/07/07 02:52:45;;;;;;;2.90;1.15;;;;;;;;;;4999307;28;20037;-80
2021/07/07 02:55:11;;;;;;;4.57;1.30;;;;;;;;;;4999532;28;20124;-81
2021/07/07 03:00:21;;;;;;;3.60;1.95;;;;;;;;;;5011212;28;20124;-80
2021/07/07 03:02:47;;;;;;;4.50;1.42;;;;;;;;;;4999284;28;20103;-80
2021/07/07 03:05:12;;;;;;;3.33;1.02;;;;;;;;;;4999074;28;20486;-80
2021/07/07 03:07:38;;;;;;;6.40;1.55;;;;;;;;;;4998977;28;20136;-80
2021/07/07 03:10:05;;;;;;;3.50;1.40;;;;;;;;;;4999558;28;20479;-80
2021/07/07 03:12:31;;;;;;;5.82;1.58;;;;;;;;;;4983117;28;20029;-80
2021/07/07 03:14:56;;;;;;;4.57;1.10;;;;;;;;;;5015633;28;20029;-81
2021/07/07 03:17:22;;;;;;;5.88;1.70;;;;;;;;;;4997623;28;20042;-81
2021/07/07 03:19:47;;;;;;;6.53;1.48;;;;;;;;;;4979961;28;20029;-80
2021/07/07 03:22:13;;;;;;;4.40;1.40;;;;;;;;;;4979517;28;20037;-81
2021/07/07 03:24:38;;;;;;;3.97;1.10;;;;;;;;;;4979070;28;20296;-81
2021/07/07 03:27:03;;;;;;;2.60;1.10;;;;;;;;;;4963606;28;20383;-80
2021/07/07 03:29:29;;;;;;;6.22;1.60;;;;;;;;;;4979491;28;20268;-80
2021/07/07 03:31:54;;;;;;;3.50;1.10;;;;;;;;;;4995826;28;20045;-80
2021/07/07 03:34:20;;;;;;;3.40;1.30;;;;;;;;;;4979259;28;20535;-80
2021/07/07 03:36:45;;;;;;;3.45;1.10;;;;;;;;;;4979107;28;20036;-80
2021/07/07 03:39:11;;;;;;;2.78;1.10;;;;;;;;;;4978703;28;20030;-80
2021/07/07 03:41:38;;;;;;;4.28;1.40;;;;;;;;;;4979396;28;20104;-80
2021/07/07 03:44:04;;;;;;;4.30;0.93;;;;;;;;;;4963635;28;20084;-81
2021/07/07 03:46:30;;;;;;;4.93;1.23;;;;;;;;;;4979013;28;20503;-80
2021/07/07 03:48:55;;;;;;;3.30;0.93;;;;;;;;;;4997602;28;20109;-81
2021/07/07 03:51:20;;;;;;;4.28;1.05;;;;;;;;;;4998689;28;20048;-80
2021/07/07 03:53:46;;;;;;;2.60;1.55;;;;;;;;;;5013881;28;20049;-81
2021/07/07 03:56:11;;;;;;;3.63;1.40;;;;;;;;;;4998252;28;20033;-80
2021/07/07 03:58:37;;;;;;;3.47;1.30;;;;;;;;;;4998263;28;20029;-80
2021/07/07 04:01:02;;;;;;;5.65;1.33;;;;;;;;;;4982127;28;20109;-80
2021/07/07 04:03:28;;;;;;;4.03;1.00;;;;;;;;;;4997673;28;20386;-80
2021/07/07 04:05:53;;;;;;;4.03;1.35;;;;;;;;;;5014411;28;20125;-81
2021/07/07 04:08:19;;;;;;;5.63;1.38;;;;;;;;;;5014192;28;20103;-80
2021/07/07 04:10:44;;;;;;;4.60;1.55;;;;;;;;;;4998126;28;20045;-80
2021/07/07 04:13:10;;;;;;;3.35;1.45;;;;;;;;;;5014569;28;20029;-81
2021/07/07 04:15:35;;;;;;;5.68;2.00;;;;;;;;;;5014564;28;20033;-81
2021/07/07 04:18:01;;;;;;;2.55;0.90;;;;;;;;;;5014191;28;20060;-80
2021/07/07 04:20:26;;;;;;;4.20;1.10;;;;;;;;;;4997810;28;20033;-81
2021/07/07 04:22:52;;;;;;;3.67;1.15;;;;;;;;;;4997704;28;20041;-81
2021/07/07 04:25:17;;;;;;;3.03;0.98;;;;;;;;;;4997969;28;20030;-80
2021/07/07 04:27:43;;;;;;;3.33;1.00;;;;;;;;;;4998211;28;20427;-81
2021/07/07 04:30:11;;;;;;;4.22;1.10;;;;;;;;;;4997977;28;20476;-80
2021/07/07 04:32:36;;;;;;;3.78;1.42;;;;;;;;;;4981343;28;20038;-81
2021/07/07 04:35:02;;;;;;;3.88;1.30;;;;;;;;;;4997618;28;20053;-81
2021/07/07 04:37:28;;;;;;;3.50;1.10;;;;;;;;;;4981144;28;20505;-80
2021/07/07 04:39:55;;;;;;;3.75;1.45;;;;;;;;;;4981549;28;20049;-81
2021/07/07 04:42:21;;;;;;;4.45;1.30;;;;;;;;;;5014130;28;20104;-80
2021/07/07 04:44:46;;;;;;;2.38;1.00;;;;;;;;;;4997654;28;20029;-81
2021/07/07 04:47:12;;;;;;;4.50;1.30;;;;;;;;;;4993047;28;20034;-80
2021/07/07 04:49:37;;;;;;;4.18;1.20;;;;;;;;;;4985774;28;20034;-80
2021/07/07 04:52:04;;;;;;;3.92;1.17;;;;;;;;;;5014063;28;20029;-80
2021/07/07 04:54:32;;;;;;;4.78;1.33;;;;;;;;;;4992753;28;20537;-80
2021/07/07 04:56:58;;;;;;;3.22;0.98;;;;;;;;;;4979072;28;20117;-80
2021/07/07 04:59:23;;;;;;;4.47;1.45;;;;;;;;;;4999185;28;20051;-80
2021/07/07 05:01:49;;;;;;;5.80;1.45;;;;;;;;;;4980948;28;20045;-80
2021/07/07 05:04:15;;;;;;;5.10;1.08;;;;;;;;;;4981407;28;20403;-80
2021/07/07 05:06:40;;;;;;;4.45;0.98;;;;;;;;;;4997165;28;20475;-80
2021/07/07 05:09:06;;;;;;;2.22;0.65;;;;;;;;;;5013812;28;20029;-80
2021/07/07 05:11:31;;;;;;;4.07;1.20;;;;;;;;;;4996459;28;20065;-81
2021/07/07 05:13:57;;;;;;;2.50;0.90;;;;;;;;;;4995233;28;20034;-80
2021/07/07 05:16:22;;;;;;;5.63;1.33;;;;;;;;;;5008889;28;20033;-80
2021/07/07 05:18:48;;;;;;;2.38;1.13;;;;;;;;;;4986243;28;20108;-81
2021/07/07 05:21:14;;;;;;;4.35;1.52;;;;;;;;;;4996860;28;20032;-81
2021/07/07 05:23:39;;;;;;;3.20;0.80;;;;;;;;;;4980625;28;20033;-81
2021/07/07 05:26:05;;;;;;;4.13;1.00;;;;;;;;;;4997177;28;20033;-81
2021/07/07 05:28:31;;;;;;;5.38;1.13;;;;;;;;;;5013390;28;20117;-80
2021/07/07 05:31:03;;;;;;;6.25;1.38;;;;;;;;;;4996827;28;20468;-80
2021/07/07 05:33:34;;;;;;;3.83;1.38;;;;;;;;;;5014901;28;20038;-80
2021/07/07 05:35:59;;;;;;;2.88;1.00;;;;;;;;;;4998052;28;20032;-80
2021/07/07 05:38:24;;;;;;;6.70;1.25;;;;;;;;;;4997428;28;20399;-79
2021/07/07 05:40:50;;;;;;;7.97;1.50;;;;;;;;;;5013631;28;20037;-80
2021/07/07 05:43:15;;;;;;;9.20;1.65;;;;;;;;;;4997199;28;20065;-79
2021/07/07 05:45:41;;;;;;;5.32;1.50;;;;;;;;;;5005750;28;20037;-79
2021/07/07 05:48:07;;;;;;;7.55;2.20;;;;;;;;;;4996948;28;20049;-79
2021/07/07 05:50:32;;;;;;;5.88;1.40;;;;;;;;;;5013244;28;20033;-79
2021/07/07 05:52:58;;;;;;;7.38;1.83;;;;;;;;;;5029808;28;20045;-79
2021/07/07 05:55:24;;;;;;;10.02;2.42;;;;;;;;;;4996925;28;20078;-80
2021/07/07 05:57:50;;;;;;;9.73;1.60;;;;;;;;;;4997472;28;20021;-80
2021/07/07 06:00:18;;;;;;;5.82;1.55;;;;;;;;;;4993644;28;20041;-80
2021/07/07 06:02:44;;;;;;;5.93;1.60;;;;;;;;;;5026397;28;20375;-79
2021/07/07 06:05:10;;;;;;;6.30;1.40;;;;;;;;;;5000258;28;20021;-79
2021/07/07 06:07:35;;;;;;;5.60;1.42;;;;;;;;;;4983949;28;20037;-80
2021/07/07 06:10:01;;;;;;;4.90;1.23;;;;;;;;;;5000287;28;20026;-79
2021/07/07 06:12:27;;;;;;;6.63;1.08;;;;;;;;;;4995303;28;20369;-79
2021/07/07 06:14:52;;;;;;;4.72;1.33;;;;;;;;;;4996664;28;20087;-79
2021/07/07 06:17:18;;;;;;;5.18;1.02;;;;;;;;;;4996829;28;20030;-80
2021/07/07 06:19:43;;;;;;;3.63;0.98;;;;;;;;;;4996952;28;20484;-79
2021/07/07 06:22:09;;;;;;;7.50;1.50;;;;;;;;;;4996978;28;20022;-80
2021/07/07 06:24:34;;;;;;;7.90;1.50;;;;;;;;;;4996172;28;20155;-80
2021/07/07 06:27:00;;;;;;;6.18;1.73;;;;;;;;;;4996974;28;20034;-80
2021/07/07 06:29:25;;;;;;;9.00;2.03;;;;;;;;;;4996105;28;20112;-80
2021/07/07 06:31:51;;;;;;;10.02;1.58;;;;;;;;;;4995900;28;20076;-80
2021/07/07 06:34:16;;;;;;;6.18;1.83;;;;;;;;;;4995192;28;20026;-79
2021/07/07 06:36:41;;;;;;;7.03;1.40;;;;;;;;;;5012585;28;20033;-79
2021/07/07 06:39:07;;;;;;;6.30;1.30;;;;;;;;;;4996562;28;20048;-79
2021/07/07 06:41:32;;;;;;;6.72;1.52;;;;;;;;;;5012819;28;20052;-79
2021/07/07 06:43:58;;;;;;;5.85;1.30;;;;;;;;;;4996337;28;20026;-79
2021/07/07 06:46:24;;;;;;;5.80;1.35;;;;;;;;;;4996229;28;20061;-80
2021/07/07 06:48:49;;;;;;;4.88;1.73;;;;;;;;;;4997843;28;20072;-79
2021/07/07 06:51:15;;;;;;;5.68;1.30;;;;;;;;;;5016024;28;20033;-79
2021/07/07 06:53:40;;;;;;;5.68;1.30;;;;;;;;;;4999070;28;20045;-79
2021/07/07 06:56:06;;;;;;;7.05;1.65;;;;;;;;;;4982848;28;20029;-80
2021/07/07 06:58:31;;;;;;;4.60;1.42;;;;;;;;;;5031894;28;20067;-79
2021/07/07 07:00:57;;;;;;;4.65;1.48;;;;;;;;;;5012619;28;20030;-79
2021/07/07 07:03:23;;;;;;;4.57;1.67;;;;;;;;;;5015226;28;20030;-80
2021/07/07 07:05:51;;;;;;;7.75;4.65;;;;;;;;;;5011535;28;20030;-80
2021/07/07 07:08:18;;;;;;;9.48;2.65;;;;;;;;;;4995842;28;20034;-80
2021/07/07 07:10:43;;;;;;;5.35;2.20;;;;;;;;;;5012208;28;20029;-79
2021/07/07 07:13:09;;;;;;;8.95;4.38;;;;;;;;;;4995193;28;20099;-81
2021/07/07 07:15:34;;;;;;;13.02;3.97;;;;;;;;;;4995891;28;20053;-80
2021/07/07 07:18:00;;;;;;;6.63;3.30;;;;;;;;;;4995526;28;20038;-80
2021/07/07 07:20:29;;;;;;;10.25;3.65;;;;;;;;;;4995876;28;20057;-79
2021/07/07 07:22:54;;;;;;;5.65;2.28;;;;;;;;;;5005942;28;20037;-79
2021/07/07 07:25:20;;;;;;;6.82;2.20;;;;;;;;;;5011322;28;20496;-78
2021/07/07 07:27:48;;;;;;;5.28;1.90;;;;;;;;;;5009534;28;20034;-79
2021/07/07 07:30:14;;;;;;;4.70;1.20;;;;;;;;;;4999116;28;20041;-78
2021/07/07 07:32:39;;;;;;;6.82;1.90;;;;;;;;;;5014666;28;20036;-79
2021/07/07 07:35:05;;;;;;;6.40;1.38;;;;;;;;;;5014522;28;20032;-79
2021/07/07 07:37:50;;;;;;;6.13;1.27;;;;;;;;;;5014772;28;20041;-79
2021/07/07 07:40:21;;;;;;;4.75;1.35;;;;;;;;;;5016951;28;20040;-79
2021/07/07 07:42:47;;;;;;;6.90;1.40;;;;;;;;;;5000300;28;20037;-79
2021/07/07 07:45:12;;;;;;;5.75;1.35;;;;;;;;;;5014689;28;20171;-78
2021/07/07 07:47:39;;;;;;;6.30;1.50;;;;;;;;;;5030839;28;20033;-79
2021/07/07 07:50:06;;;;;;;8.82;2.10;;;;;;;;;;4982173;28;20395;-78
2021/07/07 07:52:31;;;;;;;5.32;1.50;;;;;;;;;;5014476;28;20076;-79
2021/07/07 07:54:57;;;;;;;7.43;2.00;;;;;;;;;;5030423;28;20480;-78
2021/07/07 07:57:22;;;;;;;5.53;1.38;;;;;;;;;;5011933;28;20480;-78
2021/07/07 07:59:48;;;;;;;7.38;1.30;;;;;;;;;;5026460;28;20037;-78
2021/07/07 08:02:13;;;;;;;6.55;1.85;;;;;;;;;;4996935;28;20036;-78
2021/07/07 08:04:39;;;;;;;6.22;1.33;;;;;;;;;;5030801;28;20039;-78
2021/07/07 08:07:04;;;;;;;3.78;1.20;;;;;;;;;;5013411;28;20404;-77
2021/07/07 08:09:30;;;;;;;4.28;1.40;;;;;;;;;;5010900;28;20057;-78
2021/07/07 08:11:55;;;;;;;3.55;1.15;;;;;;;;;;5027764;28;20037;-78
2021/07/07 08:14:21;;;;;;;4.32;1.17;;;;;;;;;;5029800;28;20037;-77
2021/07/07 08:16:46;;;;;;;6.07;1.27;;;;;;;;;;5029628;28;20446;-77
2021/07/07 08:19:11;;;;;;;4.00;1.30;;;;;;;;;;5048060;28;20048;-77
2021/07/07 08:21:37;;;;;;;4.65;0.90;;;;;;;;;;5030689;28;20041;-78
2021/07/07 08:24:04;;;;;;;7.85;1.42;;;;;;;;;;5026943;28;20053;-77
2021/07/07 08:26:30;;;;;;;6.07;1.38;;;;;;;;;;5013595;28;20033;-77
2021/07/07 08:28:58;;;;;;;3.90;1.23;;;;;;;;;;5007980;28;20026;-77
2021/07/07 08:31:27;;;;;;;6.70;1.58;;;;;;;;;;5012449;28;20038;-77
2021/07/07 08:33:54;;;;;;;6.10;1.35;;;;;;;;;;4992779;28;20041;-77
2021/07/07 08:36:22;;;;;;;6.60;1.30;;;;;;;;;;5010296;28;20026;-77
2021/07/07 08:38:49;;;;;;;11.68;7.57;;;;;;;;;;5012608;28;20387;-78
2021/07/07 08:41:17;;;;;;;15.85;9.30;;;;;;;;;;5014837;28;20026;-77
2021/07/07 08:43:44;;;;;;;19.00;10.23;;;;;;;;;;5013495;28;20112;-78
2021/07/07 08:46:09;;;;;;;13.68;5.60;;;;;;;;;;5014122;28;20112;-77
2021/07/07 08:48:35;;;;;;;7.60;2.67;;;;;;;;;;5013955;28;20120;-77
2021/07/07 08:51:02;;;;;;;12.40;2.28;;;;;;;;;;5012582;28;20113;-78
2021/07/07 08:53:28;;;;;;;7.25;1.38;;;;;;;;;;4998202;28;20042;-77
2021/07/07 08:55:54;;;;;;;5.20;1.40;;;;;;;;;;5010074;28;20392;-77
2021/07/07 08:58:20;;;;;;;3.80;1.00;;;;;;;;;;5010267;28;20484;-78
2021/07/07 09:00:46;;;;;;;4.70;1.30;;;;;;;;;;5009798;28;20034;-78
2021/07/07 09:03:13;;;;;;;3.88;1.20;;;;;;;;;;4994087;28;20088;-77
2021/07/07 09:05:53;;;;;;;5.30;1.38;;;;;;;;;;4993869;28;20030;-77
2021/07/07 09:08:32;;;;;;;3.67;0.98;;;;;;;;;;5010487;28;20061;-78
2021/07/07 09:11:21;;;;;;;4.53;0.80;;;;;;;;;;4994785;28;20369;-77
2021/07/07 09:14:07;;;;;;;6.53;1.85;;;;;;;;;;4995112;28;20096;-78
2021/07/07 09:16:44;;;;;;;3.28;1.02;;;;;;;;;;5010474;28;20041;-78
2021/07/07 09:19:20;;;;;;;5.40;1.08;;;;;;;;;;4994311;28;20057;-78
2021/07/07 09:21:50;;;;;;;3.50;1.02;;;;;;;;;;5010554;28;20044;-77
2021/07/07 09:24:23;;;;;;;5.53;1.17;;;;;;;;;;4993712;28;20041;-77
2021/07/07 09:27:03;;;;;;;4.32;1.58;;;;;;;;;;5010774;28;20488;-77
2021/07/07 09:29:38;;;;;;;4.68;1.48;;;;;;;;;;4994673;28;20178;-77
2021/07/07 09:32:20;;;;;;;6.00;1.85;;;;;;;;;;5010586;28;20034;-78
2021/07/07 09:34:51;;;;;;;6.07;1.45;;;;;;;;;;4994235;28;20026;-78
2021/07/07 09:37:45;;;;;;;5.15;1.13;;;;;;;;;;5021937;28;20026;-78
2021/07/07 09:40:11;;;;;;;5.43;1.40;;;;;;;;;;5030609;28;20042;-78
2021/07/07 09:42:38;;;;;;;4.38;1.58;;;;;;;;;;5017403;28;20071;-78
2021/07/07 09:45:08;;;;;;;3.25;1.40;;;;;;;;;;5033612;28;20025;-78
2021/07/07 09:47:34;;;;;;;4.97;1.30;;;;;;;;;;5013049;28;20189;-78
2021/07/07 09:49:59;;;;;;;4.80;1.50;;;;;;;;;;5010971;28;20484;-78
2021/07/07 09:52:26;;;;;;;3.72;1.23;;;;;;;;;;5013269;28;20038;-77
2021/07/07 09:54:52;;;;;;;2.83;1.05;;;;;;;;;;5008374;28;20033;-78
2021/07/07 09:57:17;;;;;;;3.15;1.00;;;;;;;;;;5000388;28;20040;-78
2021/07/07 09:59:43;;;;;;;3.50;1.00;;;;;;;;;;5016180;28;20025;-78
2021/07/07 10:02:09;;;;;;;2.85;1.10;;;;;;;;;;5016695;28;20025;-78
2021/07/07 10:04:39;;;;;;;3.13;1.15;;;;;;;;;;5032999;28;20034;-77
2021/07/07 10:07:07;;;;;;;2.85;0.77;;;;;;;;;;4996942;28;20034;-77
2021/07/07 10:09:34;;;;;;;7.07;1.42;;;;;;;;;;4997249;28;20414;-77
2021/07/07 10:11:59;;;;;;;3.45;1.10;;;;;;;;;;4997238;28;20042;-77
2021/07/07 10:14:25;;;;;;;2.92;1.27;;;;;;;;;;4996675;28;20040;-77
2021/07/07 10:16:51;;;;;;;5.53;1.05;;;;;;;;;;5004943;28;20037;-78
2021/07/07 10:19:17;;;;;;;3.80;1.23;;;;;;;;;;5016678;28;20052;-77
2021/07/07 10:21:43;;;;;;;3.78;1.20;;;;;;;;;;5016888;28;20101;-77
2021/07/07 10:24:09;;;;;;;3.42;0.90;;;;;;;;;;5032560;28;20108;-77
2021/07/07 10:26:36;;;;;;;2.45;1.05;;;;;;;;;;5016133;28;20033;-77
2021/07/07 10:29:01;;;;;;;3.35;0.73;;;;;;;;;;5016553;28;20037;-77
2021/07/07 10:31:48;;;;;;;4.50;1.38;;;;;;;;;;5009580;28;20041;-77
2021/07/07 10:34:15;;;;;;;4.38;0.98;;;;;;;;;;4999626;28;20029;-77
2021/07/07 10:36:41;;;;;;;4.25;1.00;;;;;;;;;;5031767;28;20025;-76
2021/07/07 10:39:07;;;;;;;4.40;0.90;;;;;;;;;;5032521;28;20052;-77
2021/07/07 10:41:51;;;;;;;2.60;0.90;;;;;;;;;;5016144;28;20051;-77
2021/07/07 10:44:23;;;;;;;4.03;1.40;;;;;;;;;;5033912;28;20116;-77
2021/07/07 10:47:11;;;;;;;7.18;1.45;;;;;;;;;;5033335;28;20032;-77
2021/07/07 10:49:39;;;;;;;6.18;0.93;;;;;;;;;;5032423;28;20503;-77
2021/07/07 10:52:06;;;;;;;4.00;1.45;;;;;;;;;;5033430;28;20029;-76
2021/07/07 10:54:33;;;;;;;3.67;0.90;;;;;;;;;;5023101;28;20042;-77
2021/07/07 10:57:00;;;;;;;5.00;0.80;;;;;;;;;;5011089;28;20507;-77
2021/07/07 10:59:46;;;;;;;2.42;0.73;;;;;;;;;;4998790;28;20029;-77
2021/07/07 11:02:15;;;;;;;4.20;1.20;;;;;;;;;;5014882;28;20040;-77
2021/07/07 11:04:45;;;;;;;5.45;0.80;;;;;;;;;;5015773;28;20037;-76
2021/07/07 11:07:32;;;;;;;2.88;1.13;;;;;;;;;;4999426;28;20029;-77
2021/07/07 11:09:58;;;;;;;4.10;1.10;;;;;;;;;;5014508;28;20037;-77
2021/07/07 11:12:27;;;;;;;3.67;1.00;;;;;;;;;;5031645;28;20026;-77
2021/07/07 11:15:03;;;;;;;3.42;1.00;;;;;;;;;;5031710;28;20068;-77
2021/07/07 11:17:33;;;;;;;3.15;0.82;;;;;;;;;;4998309;28;20022;-77
2021/07/07 11:20:03;;;;;;;4.50;0.77;;;;;;;;;;5015672;28;20107;-77
2021/07/07 11:22:28;;;;;;;3.42;1.10;;;;;;;;;;5015338;28;20025;-77
2021/07/07 11:24:54;;;;;;;3.90;1.15;;;;;;;;;;5030061;28;20525;-77
2021/07/07 11:27:20;;;;;;;5.25;1.52;;;;;;;;;;5015462;28;20368;-77
2021/07/07 11:29:46;;;;;;;7.03;3.47;;;;;;;;;;4998668;28;20041;-77
2021/07/07 11:32:28;;;;;;;3.88;1.90;;;;;;;;;;5015080;28;20447;-77
2021/07/07 11:34:55;;;;;;;;;;;;;;;;;;5015380;28;20490;-76
2021/07/07 11:37:21;;;;;;;6.05;2.60;;;;;;;;;;5027701;28;19935;-78
2021/07/07 11:40:20;;;;;;;9.57;3.03;;;;;;;;;;5010964;28;20065;-77
2021/07/07 11:43:04;;;;;;;6.90;2.67;;;;;;;;;;5046059;28;20053;-77
2021/07/07 11:45:50;;;;;;;7.90;1.73;;;;;;;;;;5048114;28;20079;-77
2021/07/07 11:50:46;;;;;;;6.13;2.50;;;;;;;;;;5014289;28;20120;-77
2021/07/07 11:53:12;;;;;;;5.30;2.45;;;;;;;;;;5015945;28;20068;-77
2021/07/07 11:55:44;;;;;;;5.72;1.98;;;;;;;;;;5014118;28;20443;-77
2021/07/07 11:58:11;;;;;;;7.57;2.08;;;;;;;;;;5031271;28;20033;-77
2021/07/07 12:00:39;;;;;;;6.57;2.08;;;;;;;;;;5014299;28;20041;-77
2021/07/07 12:03:04;;;;;;;11.23;1.98;;;;;;;;;;5046902;28;20044;-77
2021/07/07 12:05:30;;;;;;;6.78;2.30;;;;;;;;;;5014118;28;20117;-77
2021/07/07 12:08:32;;;;;;;4.30;1.55;;;;;;;;;;5012886;28;20400;-78
2021/07/07 12:11:13;;;;;;;7.60;1.67;;;;;;;;;;4997522;28;20044;-76
2021/07/07 12:13:52;;;;;;;6.97;1.58;;;;;;;;;;5030573;28;20033;-76
2021/07/07 12:16:33;;;;;;;5.40;1.80;;;;;;;;;;5028597;28;20029;-76
2021/07/07 12:19:01;;;;;;;5.28;1.50;;;;;;;;;;5031035;28;20399;-76
2021/07/07 12:21:26;;;;;;;8.50;1.35;;;;;;;;;;5030303;28;20064;-76
2021/07/07 12:23:54;;;;;;;3.95;1.38;;;;;;;;;;5031039;28;20399;-76
2021/07/07 12:26:20;;;;;;;9.00;1.42;;;;;;;;;;5030419;28;20051;-76
2021/07/07 12:28:47;;;;;;;5.35;1.90;;;;;;;;;;5017567;28;20037;-75
2021/07/07 12:31:12;;;;;;;2.95;1.10;;;;;;;;;;5010865;28;20045;-76
2021/07/07 12:33:38;;;;;;;2.85;0.90;;;;;;;;;;5043134;28;20029;-76
2021/07/07 12:36:04;;;;;;;3.42;1.48;;;;;;;;;;5025891;28;20069;-76
2021/07/07 12:38:31;;;;;;;5.38;1.30;;;;;;;;;;4997153;28;20021;-76
2021/07/07 12:40:57;;;;;;;4.47;1.35;;;;;;;;;;5014487;28;20039;-76
2021/07/07 12:43:28;;;;;;;2.47;1.25;;;;;;;;;;5047022;28;20037;-75
2021/07/07 12:46:06;;;;;;;3.85;1.10;;;;;;;;;;5046905;28;20029;-76
2021/07/07 12:48:50;;;;;;;3.15;0.98;;;;;;;;;;5046947;28;20483;-75
2021/07/07 12:51:26;;;;;;;3.67;1.05;;;;;;;;;;5010545;28;20042;-75
2021/07/07 12:53:55;;;;;;;4.57;1.17;;;;;;;;;;5010323;28;20042;-75
2021/07/07 12:56:21;;;;;;;4.32;1.30;;;;;;;;;;5010464;28;20148;-76
2021/07/07 12:59:11;;;;;;;3.63;1.23;;;;;;;;;;4994492;28;20108;-76
2021/07/07 13:01:37;;;;;;;2.35;1.13;;;;;;;;;;5001670;28;20033;-75
2021/07/07 13:04:03;;;;;;;6.30;1.73;;;;;;;;;;5013691;28;20068;-76
2021/07/07 13:06:29;;;;;;;3.65;1.38;;;;;;;;;;5011157;28;20026;-76
2021/07/07 13:09:05;;;;;;;2.38;1.15;;;;;;;;;;5030671;28;20091;-75
2021/07/07 13:11:30;;;;;;;4.97;1.35;;;;;;;;;;5011507;28;20451;-76
2021/07/07 13:13:58;;;;;;;4.30;1.50;;;;;;;;;;5028158;28;20040;-76
2021/07/07 13:16:24;;;;;;;5.30;0.90;;;;;;;;;;4998608;28;20018;-76
2021/07/07 13:19:00;;;;;;;4.43;1.50;;;;;;;;;;5013557;28;20506;-76
2021/07/07 13:21:35;;;;;;;4.00;0.95;;;;;;;;;;5030338;28;20058;-77
2021/07/07 13:24:24;;;;;;;2.92;1.20;;;;;;;;;;5013338;28;20046;-76
2021/07/07 13:27:00;;;;;;;3.83;1.42;;;;;;;;;;5033016;28;20109;-76
2021/07/07 13:29:48;;;;;;;4.03;1.33;;;;;;;;;;5048665;28;20042;-76
2021/07/07 13:32:14;;;;;;;2.97;0.80;;;;;;;;;;5047428;28;20029;-76
2021/07/07 13:34:46;;;;;;;8.90;1.77;;;;;;;;;;5027456;28;20038;-76
2021/07/07 13:37:27;;;;;;;4.03;1.30;;;;;;;;;;5029791;28;20112;-76
2021/07/07 13:39:57;;;;;;;4.00;1.17;;;;;;;;;;5033639;28;20038;-76
2021/07/07 13:42:24;;;;;;;2.42;0.90;;;;;;;;;;5033840;28;20029;-76
2021/07/07 13:44:50;;;;;;;4.43;1.55;;;;;;;;;;5033224;28;20033;-76
2021/07/07 13:47:18;;;;;;;4.97;1.33;;;;;;;;;;5034218;28;20029;-76
2021/07/07 13:49:44;;;;;;;3.13;1.00;;;;;;;;;;5024228;28;20073;-76
2021/07/07 13:52:10;;;;;;;4.63;1.27;;;;;;;;;;5012991;28;20065;-76
2021/07/07 13:54:37;;;;;;;5.05;0.65;;;;;;;;;;4995461;28;20405;-76
2021/07/07 13:57:04;;;;;;;6.35;1.83;;;;;;;;;;5030082;28;20547;-76
2021/07/07 13:59:31;;;;;;;1.92;0.85;;;;;;;;;;5013857;28;20065;-76
2021/07/07 14:01:57;;;;;;;6.53;1.42;;;;;;;;;;5003241;28;20025;-76
2021/07/07 14:04:22;;;;;;;6.38;1.50;;;;;;;;;;5027634;28;20400;-76
2021/07/07 14:06:48;;;;;;;3.83;1.45;;;;;;;;;;5013181;28;20029;-76
2021/07/07 14:09:14;;;;;;;4.65;1.20;;;;;;;;;;5013491;28;20468;-76
2021/07/07 14:11:40;;;;;;;5.70;1.38;;;;;;;;;;5014083;28;20494;-76
2021/07/07 14:14:06;;;;;;;4.97;1.23;;;;;;;;;;5013667;28;20038;-76
2021/07/07 14:16:31;;;;;;;3.35;0.98;;;;;;;;;;5013106;28;20041;-76
2021/07/07 14:18:57;;;;;;;3.05;1.23;;;;;;;;;;4996861;28;20042;-76
2021/07/07 14:21:22;;;;;;;1.90;0.90;;;;;;;;;;5013545;28;20065;-76
2021/07/07 14:23:48;;;;;;;3.65;1.02;;;;;;;;;;5013037;28;20042;-76
2021/07/07 14:26:13;;;;;;;2.60;1.17;;;;;;;;;;5043109;28;20075;-76
2021/07/07 14:28:39;;;;;;;2.35;0.90;;;;;;;;;;5016398;28;20037;-76
2021/07/07 14:31:04;;;;;;;2.42;0.73;;;;;;;;;;5033011;28;20072;-76
2021/07/07 14:33:29;;;;;;;3.58;1.45;;;;;;;;;;5016166;28;20029;-76
2021/07/07 14:35:55;;;;;;;3.10;1.20;;;;;;;;;;5015958;28;20041;-76
2021/07/07 14:38:20;;;;;;;1.63;0.70;;;;;;;;;;5016172;28;20042;-75
2021/07/07 14:40:46;;;;;;;2.38;0.82;;;;;;;;;;5016631;28;20037;-76
2021/07/07 14:43:11;;;;;;;3.92;0.90;;;;;;;;;;5032731;28;20128;-76
2021/07/07 14:45:37;;;;;;;3.33;1.00;;;;;;;;;;5032870;28;20021;-76
2021/07/07 14:48:03;;;;;;;3.38;1.08;;;;;;;;;;5032298;28;20037;-76
2021/07/07 14:50:28;;;;;;;3.45;1.10;;;;;;;;;;5016104;28;20099;-76
2021/07/07 14:52:54;;;;;;;2.55;0.93;;;;;;;;;;5048796;28;20545;-76